North Saint Paul, Minnesota
Current Conditions -  °F | °C
As of 12:20 PM on Monday 22 Dec 2014 (Local Time) from KSTP Reporting Station
Light Rain Light Rain  
Wind Chill: 28°   Ceiling: 1000
Heat Index: 36°   Visibility: 3mi
Dew Point: 34°   Wind: 12mph
Humidity: 93%   Direction: 120°ESE
Pressure: 29.63"   Gusts: NA
Location:  45.0145°N, 93.0259°W
Report Text: KSTP 221820Z 12010KT 3SM -RA BR OVC010 02/01 A2963 RMK AO2 P0000 T00220011
Loading
Personal Weather Stations






























Interactive Weather Map New forecast layout! Learn more

10-Day Weather Forecast

Advertisements
Track Severe Weather on mobile